Time;durP1;ratioP1;P1;durP2;ratioP2;P2;SDS_P1;SDS_P2;PMS_P1;PMS_P2;Temp;Humidity;BMP_temperature;BMP_pressure;BME280_temperature;BME280_humidity;BME280_pressure;Samples;Min_cycle;Max_cycle;Signal;HPM_P1;HPM_P2
2021/01/08 00:01:46;;;;;;;12.23;11.03;;;13.20;90.80;;;13.21;45.71;100684.00;4941667;28;99078;-56
2021/01/08 00:04:12;;;;;;;12.83;11.53;;;13.00;92.00;;;13.13;45.77;100678.13;4945586;28;103088;-61
2021/01/08 00:06:38;;;;;;;11.87;10.67;;;12.90;92.20;;;13.01;45.83;100678.69;4928514;28;99489;-58
2021/01/08 00:09:05;;;;;;;12.90;11.70;;;12.80;92.00;;;13.06;45.54;100672.28;4926296;28;99449;-62
2021/01/08 00:11:35;;;;;;;12.33;11.03;;;12.90;91.80;;;12.97;45.66;100672.69;4929742;28;99104;-62
2021/01/08 00:14:04;;;;;;;14.40;13.00;;;12.80;91.60;;;12.95;45.20;100673.69;4943127;28;97715;-59
2021/01/08 00:16:34;;;;;;;12.90;11.53;;;12.90;90.20;;;12.99;45.80;100680.56;4939019;28;107437;-61
2021/01/08 00:19:00;;;;;;;13.57;12.17;;;12.80;91.40;;;12.71;45.04;100671.19;4928872;28;98138;-62
2021/01/08 00:21:42;;;;;;;13.07;11.77;;;12.60;90.90;;;12.77;44.56;100675.38;4944247;28;96626;-62
2021/01/08 00:24:12;;;;;;;11.83;10.73;;;12.60;91.40;;;12.63;46.79;100672.47;4926791;28;99480;-62
2021/01/08 00:26:39;;;;;;;12.57;11.40;;;12.40;92.90;;;12.74;46.76;100680.81;4943905;28;100649;-62
2021/01/08 00:29:06;;;;;;;14.40;13.00;;;12.50;92.70;;;12.68;42.54;100679.28;4915345;28;97496;-63
2021/01/08 00:31:46;;;;;;;15.20;13.70;;;12.70;89.70;;;12.07;46.97;100679.25;4934119;28;98768;-63
2021/01/08 00:34:16;;;;;;;15.63;14.03;;;11.70;91.40;;;11.50;45.46;100680.63;4918313;28;100560;-58
2021/01/08 00:36:53;;;;;;;15.53;13.90;;;11.20;92.40;;;10.98;47.49;100685.22;4934342;28;99551;-62
2021/01/08 00:39:20;;;;;;;16.13;14.43;;;10.50;93.60;;;10.60;47.89;100683.13;4916702;28;99515;-60
2021/01/08 00:41:47;;;;;;;16.73;15.03;;;10.20;94.10;;;10.15;49.45;100686.41;4918871;28;98389;-61
2021/01/08 00:44:14;;;;;;;17.50;15.67;;;9.70;95.10;;;9.73;51.00;100689.53;4917352;28;100649;-59
2021/01/08 00:46:49;;;;;;;16.33;14.60;;;9.20;96.20;;;10.02;51.20;100680.69;4933668;28;98148;-63
2021/01/08 00:49:16;;;;;;;15.43;13.80;;;9.50;96.80;;;10.16;52.65;100682.84;4904625;28;101761;-59
2021/01/08 00:51:42;;;;;;;14.47;12.97;;;9.60;97.50;;;10.41;52.57;100683.78;4948043;28;98283;-61
2021/01/08 00:54:08;;;;;;;15.40;13.40;;;10.00;96.80;;;10.46;50.22;100686.25;4901628;28;99767;-62
2021/01/08 00:56:34;;;;;;;14.93;13.43;;;10.20;94.70;;;10.57;51.42;100691.16;4950292;28;96916;-58
2021/01/08 00:59:01;;;;;;;13.83;12.33;;;10.10;95.90;;;10.76;51.88;100694.88;4924997;28;102622;-61
2021/01/08 01:01:27;;;;;;;14.80;13.23;;;10.30;97.30;;;10.71;51.94;100688.91;4944863;28;98539;-60
2021/01/08 01:03:53;;;;;;;14.23;12.87;;;10.20;97.20;;;10.72;49.87;100682.72;4908264;28;99387;-63
2021/01/08 01:06:31;;;;;;;12.20;11.10;;;10.40;94.40;;;11.06;51.59;100686.75;4947715;28;106329;-62
2021/01/08 01:08:59;;;;;;;13.57;11.67;;;10.60;96.80;;;11.08;49.32;100679.63;4928183;28;102977;-60
2021/01/08 01:11:27;;;;;;;13.73;12.33;;;10.60;94.90;;;11.37;50.46;100684.66;4931322;28;97447;-63
2021/01/08 01:13:55;;;;;;;14.03;12.57;;;11.00;95.90;;;11.29;50.06;100684.13;4949340;28;97542;-61
2021/01/08 01:16:22;;;;;;;13.67;12.27;;;10.90;95.20;;;11.43;49.74;100680.91;4938886;28;97864;-62
2021/01/08 01:18:51;;;;;;;12.57;11.27;;;11.00;95.00;;;11.41;48.58;100688.91;4951155;28;97068;-60
2021/01/08 01:21:17;;;;;;;12.60;11.40;;;10.90;93.90;;;11.38;47.03;100683.75;4908437;28;101394;-61
2021/01/08 01:23:43;;;;;;;13.17;11.80;;;10.90;94.40;;;11.07;49.97;100685.81;4950815;28;98904;-62
2021/01/08 01:26:09;;;;;;;13.60;12.20;;;10.40;94.80;;;11.26;49.15;100684.22;4925402;28;97960;-60
2021/01/08 01:28:36;;;;;;;12.97;11.67;;;10.60;95.20;;;11.13;49.75;100690.88;4928563;28;97933;-62
2021/01/08 01:31:03;;;;;;;12.17;10.97;;;10.50;95.10;;;11.38;48.23;100688.16;4921332;28;97101;-63
2021/01/08 01:33:30;;;;;;;13.47;12.07;;;10.90;94.30;;;11.52;47.11;100681.44;4944658;28;98518;-57
2021/01/08 01:35:56;;;;;;;12.27;10.97;;;11.10;94.70;;;11.49;48.30;100696.53;4937406;28;98426;-63
2021/01/08 01:38:22;;;;;;;12.03;10.83;;;11.10;94.40;;;11.78;48.71;100687.47;4933376;28;97461;-62
2021/01/08 01:40:49;;;;;;;9.47;7.67;;;11.40;94.50;;;11.68;49.20;100688.75;4925249;28;98376;-63
2021/01/08 01:43:15;;;;;;;10.97;9.87;;;11.30;94.80;;;11.81;48.50;100696.16;4948670;28;97627;-62
2021/01/08 01:45:41;;;;;;;11.80;10.63;;;11.50;94.20;;;11.51;46.78;100699.97;4919366;28;98533;-59
2021/01/08 01:48:11;;;;;;;11.13;10.03;;;11.20;93.80;;;11.18;48.77;100699.50;4946951;28;97261;-62
2021/01/08 01:50:38;;;;;;;11.20;10.10;;;10.70;94.40;;;11.19;47.50;100703.84;4943314;28;98185;-61
2021/01/08 01:53:04;;;;;;;11.37;10.00;;;10.70;95.10;;;11.42;49.34;100701.19;4927905;28;98029;-61
2021/01/08 01:55:31;;;;;;;10.97;9.77;;;10.90;95.10;;;11.28;49.58;100698.22;4915733;28;97946;-63
2021/01/08 01:57:58;;;;;;;10.83;9.73;;;10.80;95.40;;;11.35;49.75;100694.44;4923636;28;96960;-61
2021/01/08 02:00:24;;;;;;;11.13;9.93;;;10.90;95.80;;;11.40;49.79;100697.75;4916913;28;98138;-61
2021/01/08 02:03:03;;;;;;;11.00;9.90;;;10.90;94.60;;;11.47;49.51;100704.53;4938979;28;98727;-61
2021/01/08 02:05:30;;;;;;;11.03;9.93;;;10.90;95.30;;;11.29;46.90;100697.31;4934260;28;98146;-60
2021/01/08 02:08:04;;;;;;;11.03;9.97;;;10.90;94.00;;;11.40;49.25;100697.75;4936170;28;106078;-61
2021/01/08 02:10:52;;;;;;;10.77;9.67;;;10.80;95.00;;;11.41;46.91;100704.75;4946869;28;98800;-61
2021/01/08 02:13:24;;;;;;;11.10;10.00;;;10.90;95.00;;;10.91;47.54;100704.88;4937353;28;103139;-58
2021/01/08 02:15:52;;;;;;;11.30;10.13;;;10.50;94.30;;;10.82;49.50;100699.91;4932873;28;98191;-59
2021/01/08 02:18:19;;;;;;;12.57;11.27;;;10.20;96.70;;;10.58;51.67;100708.72;4941805;28;103508;-62
2021/01/08 02:20:45;;;;;;;12.17;11.00;;;9.90;96.90;;;10.52;50.50;100714.19;4951048;28;96995;-58
2021/01/08 02:23:26;;;;;;;12.97;11.70;;;9.90;96.00;;;10.01;50.59;100714.97;4949366;28;99996;-59
2021/01/08 02:25:53;;;;;;;13.20;11.90;;;9.50;96.20;;;9.40;52.03;100715.13;4947352;28;97401;-58
2021/01/08 02:28:25;;;;;;;12.80;11.50;;;8.90;97.30;;;9.20;53.38;100720.97;4940484;28;97427;-56
2021/01/08 02:30:52;;;;;;;13.43;12.03;;;8.60;98.40;;;9.13;54.14;100723.81;4947427;28;96955;-60
2021/01/08 02:33:19;;;;;;;12.40;11.10;;;8.50;98.50;;;9.06;54.61;100723.13;4956051;28;99549;-59
2021/01/08 02:35:50;;;;;;;13.87;10.90;;;8.50;98.90;;;8.85;54.10;100723.72;4965151;28;97262;-58
2021/01/08 02:38:20;;;;;;;11.30;10.10;;;8.30;99.10;;;8.83;53.65;100722.91;4944977;28;96888;-60
2021/01/08 02:40:49;;;;;;;11.97;10.77;;;8.30;99.00;;;8.39;56.30;100719.69;4959670;28;98467;-62
2021/01/08 02:43:22;;;;;;;10.27;9.23;;;7.90;99.90;;;8.28;55.47;100721.69;4949299;28;97361;-57
2021/01/08 02:45:50;;;;;;;11.67;10.40;;;7.80;99.90;;;7.83;56.24;100724.53;4958936;28;97387;-58
2021/01/08 02:48:17;;;;;;;12.93;11.63;;;7.50;99.90;;;7.70;56.94;100725.72;4945165;28;97677;-57
2021/01/08 02:50:43;;;;;;;11.73;10.43;;;7.40;99.90;;;7.95;55.77;100724.22;4922775;28;96988;-59
2021/01/08 02:53:14;;;;;;;14.40;11.73;;;7.70;99.90;;;7.78;58.18;100728.16;4947191;28;98688;-60
2021/01/08 02:55:53;;;;;;;13.23;11.43;;;7.50;99.90;;;7.56;57.76;100730.41;4928744;28;99088;-61
2021/01/08 02:58:20;;;;;;;13.47;12.07;;;7.30;99.90;;;7.86;58.96;100732.34;4965296;28;97281;-57
2021/01/08 03:00:47;;;;;;;13.33;11.93;;;7.50;99.90;;;7.78;57.11;100731.63;4936879;28;104860;-60
2021/01/08 03:03:14;;;;;;;14.60;12.80;;;7.50;99.90;;;7.60;58.33;100732.06;4959405;28;98076;-60
2021/01/08 03:05:40;;;;;;;14.90;13.30;;;7.30;99.90;;;7.44;57.94;100727.16;4920419;28;99507;-58
2021/01/08 03:08:06;;;;;;;14.07;12.53;;;7.20;99.90;;;7.62;58.63;100731.13;4960895;28;99020;-55
2021/01/08 03:10:32;;;;;;;14.60;12.47;;;7.20;99.90;;;7.76;59.41;100726.41;4922418;28;97127;-57
2021/01/08 03:13:03;;;;;;;15.83;13.77;;;7.30;99.90;;;7.73;58.14;100730.88;4947926;28;99383;-58
2021/01/08 03:15:29;;;;;;;14.67;12.37;;;7.30;99.90;;;7.51;57.66;100732.25;4945615;28;105659;-57
2021/01/08 03:17:55;;;;;;;15.70;13.43;;;7.20;99.90;;;7.80;58.14;100729.81;4962476;28;97506;-61
2021/01/08 03:20:21;;;;;;;15.40;13.30;;;7.40;99.90;;;7.56;57.82;100735.66;4952394;28;97335;-62
2021/01/08 03:22:47;;;;;;;15.07;13.47;;;7.30;99.90;;;7.39;58.27;100731.63;4945114;28;98916;-57
2021/01/08 03:25:13;;;;;;;14.87;13.30;;;7.10;99.90;;;7.57;59.59;100737.38;4950743;28;98164;-58
2021/01/08 03:27:39;;;;;;;15.57;13.93;;;7.10;99.90;;;7.37;58.39;100735.16;4941273;28;103123;-60
2021/01/08 03:30:07;;;;;;;15.53;13.57;;;7.10;99.90;;;7.32;58.95;100735.28;4958659;28;97265;-56
2021/01/08 03:32:34;;;;;;;15.33;13.10;;;7.00;99.90;;;7.32;59.10;100735.28;4953262;28;100616;-60
2021/01/08 03:35:00;;;;;;;15.33;13.03;;;7.00;99.90;;;7.93;59.91;100731.28;4963909;28;97357;-58
2021/01/08 03:37:26;;;;;;;15.90;13.20;;;7.50;99.90;;;7.82;58.56;100735.94;4957297;28;100883;-60
2021/01/08 03:39:52;;;;;;;15.37;13.30;;;7.40;99.90;;;8.10;58.10;100737.88;4953152;28;99009;-61
2021/01/08 03:42:18;;;;;;;15.17;13.23;;;7.60;99.90;;;7.83;58.07;100735.03;4932810;28;99927;-61
2021/01/08 03:44:43;;;;;;;14.90;13.17;;;7.40;99.90;;;8.04;58.84;100745.03;4965151;28;119794;-60
2021/01/08 03:47:09;;;;;;;14.93;13.33;;;7.50;99.90;;;7.76;57.09;100743.94;4954383;28;97117;-56
2021/01/08 03:49:38;;;;;;;15.37;13.60;;;7.40;99.90;;;7.88;57.51;100741.03;4963231;28;97993;-55
2021/01/08 03:52:08;;;;;;;13.83;11.90;;;7.50;99.90;;;8.00;58.11;100738.13;4961709;28;98063;-60
2021/01/08 03:54:36;;;;;;;14.93;13.33;;;7.50;99.90;;;7.88;57.21;100738.41;4950328;28;101339;-59
2021/01/08 03:57:03;;;;;;;14.40;12.07;;;7.50;99.90;;;8.19;57.91;100738.53;4959291;28;96773;-57
2021/01/08 03:59:29;;;;;;;14.90;13.30;;;7.60;99.90;;;8.13;57.05;100749.22;5067693;22;101547;-55
2021/01/08 04:01:55;;;;;;;14.03;12.23;;;7.60;99.90;;;8.03;57.28;100748.56;4969541;28;97660;-54
2021/01/08 04:04:21;;;;;;;15.60;13.90;;;7.60;99.90;;;8.03;57.15;100740.66;4961683;28;99000;-57
2021/01/08 04:06:47;;;;;;;15.33;13.20;;;7.60;99.90;;;8.32;56.67;100747.00;4973463;28;97021;-56
2021/01/08 04:09:13;;;;;;;14.03;12.47;;;7.70;99.90;;;8.29;57.20;100747.06;4949948;28;100463;-53
2021/01/08 04:11:39;;;;;;;14.37;12.87;;;7.70;99.90;;;8.47;56.74;100748.41;4975293;28;100340;-57
2021/01/08 04:14:04;;;;;;;14.33;12.83;;;7.90;99.90;;;8.33;55.99;100746.94;4968059;28;101105;-57
2021/01/08 04:16:35;;;;;;;13.30;11.90;;;7.80;99.90;;;8.20;57.24;100744.66;4989516;28;96680;-58
2021/01/08 04:19:02;;;;;;;12.67;11.27;;;7.70;99.90;;;7.95;56.55;100755.75;4984208;28;96846;-57
2021/01/08 04:21:27;;;;;;;13.97;11.80;;;7.60;99.90;;;7.93;56.50;100757.53;4979801;28;98502;-57
2021/01/08 04:23:54;;;;;;;12.30;10.80;;;7.50;99.90;;;7.85;56.86;100754.25;4966095;28;99566;-56
2021/01/08 04:26:20;;;;;;;12.37;10.73;;;7.50;99.90;;;7.82;57.09;100754.31;4988268;28;96911;-62
2021/01/08 04:28:45;;;;;;;13.30;11.37;;;7.40;99.90;;;7.58;57.80;100754.84;4978871;28;99700;-53
2021/01/08 04:31:11;;;;;;;11.77;10.37;;;7.20;99.90;;;7.69;58.98;100758.13;4982853;28;97581;-57
2021/01/08 04:33:37;;;;;;;14.00;11.13;;;7.20;99.90;;;7.66;58.83;100758.16;4986350;28;98565;-58
2021/01/08 04:36:05;;;;;;;11.70;10.07;;;7.20;99.90;;;7.63;57.96;100758.22;4952836;28;97195;-58
2021/01/08 04:38:30;;;;;;;12.50;10.67;;;7.30;99.90;;;7.63;58.77;100758.22;4970464;28;97057;-58
2021/01/08 04:40:56;;;;;;;12.57;10.87;;;7.20;99.90;;;7.72;60.49;100758.03;4982439;28;107249;-55
2021/01/08 04:43:23;;;;;;;12.77;10.57;;;7.20;99.90;;;7.60;57.60;100755.69;4975091;28;97265;-57
2021/01/08 04:45:48;;;;;;;11.93;10.50;;;7.30;99.90;;;7.81;58.93;100757.84;4963375;28;96919;-54
2021/01/08 04:48:17;;;;;;;11.33;10.10;;;7.30;99.90;;;7.80;57.54;100766.59;4972613;28;97150;-57
2021/01/08 04:50:44;;;;;;;11.67;10.30;;;7.30;99.90;;;7.83;59.13;100761.31;4980078;28;97927;-57
2021/01/08 04:53:10;;;;;;;12.53;10.40;;;7.30;99.90;;;7.85;57.10;100759.50;4972002;28;97213;-57
2021/01/08 04:55:39;;;;;;;13.53;10.13;;;7.40;99.90;;;8.01;58.68;100760.88;4962379;28;107310;-58
2021/01/08 04:58:07;;;;;;;11.80;10.40;;;7.40;99.90;;;7.93;57.66;100765.41;4990492;28;96938;-55
2021/01/08 05:00:35;;;;;;;11.20;9.47;;;7.50;99.90;;;8.41;56.78;100761.72;4981432;28;98399;-55
2021/01/08 05:03:01;;;;;;;11.87;10.47;;;7.90;99.90;;;8.15;55.95;100757.91;4989618;28;97481;-56
2021/01/08 05:05:27;;;;;;;11.87;10.10;;;7.70;99.90;;;7.97;56.37;100759.22;4982652;28;97390;-52
2021/01/08 05:07:53;;;;;;;12.93;10.77;;;7.60;99.90;;;8.14;56.03;100771.09;4962809;28;101473;-54
2021/01/08 05:10:19;;;;;;;11.53;10.13;;;7.70;99.90;;;8.38;58.37;100762.63;4977807;28;97493;-57
2021/01/08 05:12:48;;;;;;;12.97;11.50;;;7.70;99.90;;;8.26;57.31;100763.78;4980410;28;99434;-55
2021/01/08 05:15:15;;;;;;;12.30;11.00;;;7.70;99.90;;;8.31;55.94;100768.91;4976258;28;97610;-57
2021/01/08 05:17:42;;;;;;;11.77;10.23;;;7.80;99.90;;;8.35;56.04;100771.44;4974866;28;97330;-56
2021/01/08 05:20:17;;;;;;;12.13;10.50;;;7.80;99.90;;;8.22;56.86;100770.00;4991114;28;97451;-56
2021/01/08 05:22:44;;;;;;;11.03;9.80;;;7.70;99.90;;;8.33;56.49;100772.38;4952824;28;117985;-56
2021/01/08 05:25:11;;;;;;;10.73;9.60;;;7.70;99.90;;;8.15;55.66;100772.81;4990276;28;98272;-56
2021/01/08 05:27:38;;;;;;;10.47;9.37;;;7.60;99.90;;;8.58;56.66;100776.16;4969503;28;98057;-55
2021/01/08 05:30:26;;;;;;;10.90;9.70;;;7.90;99.90;;;8.47;54.84;100775.56;4954958;28;104114;-54
2021/01/08 05:33:00;;;;;;;9.83;8.60;;;7.90;99.90;;;8.66;57.35;100775.94;4942036;28;98733;-57
2021/01/08 05:35:32;;;;;;;9.70;8.57;;;7.90;99.90;;;8.28;55.16;100776.88;4977603;28;96890;-55
2021/01/08 05:38:05;;;;;;;11.33;8.83;;;7.80;99.90;;;8.09;55.82;100778.19;4979754;28;97137;-58
2021/01/08 05:40:31;;;;;;;9.30;8.23;;;7.60;99.90;;;8.10;57.18;100774.66;4975526;28;97314;-56
2021/01/08 05:43:03;;;;;;;9.23;8.13;;;7.60;99.90;;;7.88;56.33;100784.81;4965146;28;97281;-58
2021/01/08 05:45:31;;;;;;;9.70;8.20;;;7.40;99.90;;;8.15;58.41;100778.06;4979855;28;96975;-56
2021/01/08 05:47:59;;;;;;;9.87;8.63;;;7.50;99.90;;;7.89;56.88;100792.66;4959370;28;104052;-57
2021/01/08 05:50:28;;;;;;;8.83;7.93;;;7.50;99.90;;;8.02;58.03;100783.59;4958768;28;99502;-54
2021/01/08 05:53:05;;;;;;;8.97;7.97;;;7.50;99.90;;;7.88;56.76;100784.81;4977932;28;101213;-57
2021/01/08 05:55:42;;;;;;;9.40;7.63;;;7.40;99.90;;;7.59;56.90;100788.09;4972236;28;96965;-57
2021/01/08 05:58:21;;;;;;;8.07;6.70;;;7.20;99.90;;;7.99;57.42;100788.94;4947738;28;96871;-57
2021/01/08 06:01:02;;;;;;;8.10;7.20;;;7.40;99.90;;;7.96;56.80;100788.16;4976929;28;100832;-54
2021/01/08 06:03:29;;;;;;;7.37;6.50;;;7.40;99.90;;;8.19;58.17;100785.84;4968378;28;102929;-53
2021/01/08 06:06:00;;;;;;;7.80;6.50;;;7.50;99.90;;;7.94;56.89;100789.94;4984144;28;96883;-58
2021/01/08 06:08:29;;;;;;;8.27;7.03;;;7.50;99.90;;;8.01;55.90;100791.53;4976427;28;97819;-56
2021/01/08 06:10:58;;;;;;;7.57;6.43;;;7.50;99.90;;;8.32;57.35;100791.66;4958539;28;99596;-56
2021/01/08 06:13:32;;;;;;;7.40;6.63;;;7.70;99.90;;;8.45;56.62;100798.38;4968016;28;103248;-54
2021/01/08 06:16:03;;;;;;;7.67;6.73;;;7.80;99.90;;;8.36;56.25;100798.59;4964622;28;102970;-56
2021/01/08 06:18:29;;;;;;;6.43;5.77;;;7.70;99.90;;;8.30;54.55;100798.72;4973489;28;97159;-57
2021/01/08 06:21:07;;;;;;;8.80;7.13;;;7.80;99.90;;;8.21;55.95;100798.94;4979567;28;99469;-55
2021/01/08 06:23:45;;;;;;;6.77;6.07;;;7.60;99.90;;;8.06;55.15;100806.28;4965421;28;102495;-57
2021/01/08 06:26:20;;;;;;;7.63;6.77;;;7.60;99.90;;;8.04;56.99;100810.72;4979689;28;98691;-56
2021/01/08 06:28:48;;;;;;;7.27;6.23;;;7.50;99.90;;;7.80;56.30;100810.38;4990232;28;98291;-55
2021/01/08 06:31:22;;;;;;;7.93;6.93;;;7.40;99.90;;;7.87;56.46;100815.47;4972445;28;100657;-57
2021/01/08 06:33:52;;;;;;;8.23;6.93;;;7.40;99.90;;;7.75;57.04;100813.13;4992144;28;96934;-56
2021/01/08 06:36:44;;;;;;;7.97;6.87;;;7.30;99.90;;;8.00;58.70;100816.94;4977043;28;102555;-56
2021/01/08 06:39:20;;;;;;;9.03;7.13;;;7.40;99.90;;;8.01;56.02;100813.41;4966431;28;97704;-56
2021/01/08 06:41:55;;;;;;;8.40;7.00;;;7.60;99.90;;;8.26;55.34;100823.38;4958720;28;98737;-58
2021/01/08 06:44:28;;;;;;;9.23;7.13;;;7.80;99.90;;;8.26;56.04;100826.00;4968911;28;98151;-56
2021/01/08 06:46:57;;;;;;;9.03;6.90;;;7.80;99.90;;;8.91;57.24;100818.25;4977402;28;97050;-58
2021/01/08 06:49:23;;;;;;;9.23;7.40;;;8.30;99.90;;;8.94;55.10;100826.06;4952795;28;96972;-57
2021/01/08 06:51:49;;;;;;;8.30;6.83;;;8.30;99.90;;;9.21;52.53;100827.97;4959517;28;104447;-55
2021/01/08 06:54:15;;;;;;;9.67;7.90;;;8.80;99.90;;;9.13;53.10;100824.69;4981644;28;112476;-56
2021/01/08 06:56:45;;;;;;;9.60;8.10;;;8.60;99.90;;;9.14;55.56;100831.69;4946113;28;100857;-56
2021/01/08 06:59:17;;;;;;;10.63;8.03;;;8.50;99.90;;;8.87;54.06;100843.78;4986152;28;98776;-55
2021/01/08 07:02:12;;;;;;;9.97;7.97;;;8.30;99.90;;;9.12;56.01;100832.63;4982501;28;96910;-56
2021/01/08 07:04:39;;;;;;;9.50;7.90;;;8.30;99.90;;;8.99;53.22;100837.34;4982249;28;99966;-54
2021/01/08 07:07:09;;;;;;;8.40;7.23;;;8.40;99.90;;;8.93;55.51;100848.00;4975269;28;98678;-55
2021/01/08 07:09:39;;;;;;;8.17;7.27;;;8.20;99.90;;;8.58;54.91;100849.78;4955437;28;98408;-58
2021/01/08 07:12:11;;;;;;;7.83;6.80;;;8.00;99.90;;;8.53;56.16;100854.25;4979314;28;98949;-53
2021/01/08 07:14:38;;;;;;;8.03;6.80;;;7.90;99.90;;;8.89;55.16;100851.63;4988417;28;101321;-56
2021/01/08 07:17:09;;;;;;;7.87;6.87;;;8.20;99.90;;;8.64;53.59;100862.75;4962087;28;97165;-55
2021/01/08 07:19:39;;;;;;;8.23;6.73;;;8.20;99.90;;;8.24;54.35;100867.19;4968327;28;96900;-57
2021/01/08 07:22:05;;;;;;;7.17;6.33;;;7.80;99.90;;;8.01;55.73;100876.47;4985785;28;97885;-57
2021/01/08 07:24:35;;;;;;;7.63;6.30;;;7.50;99.90;;;8.22;56.62;100869.84;4983758;28;100307;-59
2021/01/08 07:27:23;;;;;;;8.37;7.13;;;7.60;99.90;;;8.24;55.80;100877.69;4954986;28;97825;-59
2021/01/08 07:30:00;;;;;;;7.70;6.40;;;7.70;99.90;;;8.19;55.72;100882.19;4954489;28;102557;-59
2021/01/08 07:32:40;;;;;;;7.30;6.43;;;7.60;99.90;;;7.87;55.83;100881.13;4963285;28;102677;-57
2021/01/08 07:35:26;;;;;;;8.63;7.03;;;7.40;99.90;;;7.78;56.34;100883.94;4991229;28;99517;-58
2021/01/08 07:38:04;;;;;;;8.17;6.70;;;7.30;99.90;;;7.90;58.57;100886.31;4969751;28;99771;-57
2021/01/08 07:40:34;;;;;;;8.20;6.67;;;7.30;99.90;;;7.78;57.32;100894.44;4966869;28;97474;-58
2021/01/08 07:43:08;;;;;;;8.33;6.87;;;7.30;99.90;;;7.65;56.48;100892.97;4966082;28;99974;-59
2021/01/08 07:45:59;;;;;;;8.17;6.90;;;7.20;99.90;;;7.68;59.30;100892.94;4958388;28;97929;-58
2021/01/08 07:48:30;;;;;;;8.50;7.03;;;7.20;99.90;;;7.79;57.66;100896.19;4955288;28;97025;-58
2021/01/08 07:50:58;;;;;;;9.17;7.67;;;7.30;99.90;;;7.71;57.44;100903.38;4965381;28;100432;-58
2021/01/08 07:53:53;;;;;;;14.07;11.53;;;7.20;99.90;;;7.89;57.52;100908.22;4979367;28;97712;-63
2021/01/08 07:56:23;;;;;;;13.27;11.10;;;7.30;99.90;;;8.04;57.09;100913.16;4936692;28;98296;-56
2021/01/08 07:58:58;;;;;;;12.80;10.83;;;7.50;99.90;;;8.21;57.61;100914.56;4975550;28;97410;-58
2021/01/08 08:01:25;;;;;;;11.63;8.47;;;7.50;99.90;;;8.06;56.33;100921.88;4966566;28;97233;-58
2021/01/08 08:04:08;;;;;;;10.17;7.87;;;7.50;99.90;;;7.97;55.63;100922.09;4957289;28;102068;-58
2021/01/08 08:06:41;;;;;;;10.87;8.57;;;7.50;99.90;;;8.24;54.91;100928.50;4960427;28;96937;-58
2021/01/08 08:09:13;;;;;;;11.47;8.23;;;7.80;99.90;;;8.53;55.95;100930.50;4979289;28;97524;-58
2021/01/08 08:11:39;;;;;;;9.93;8.23;;;8.00;99.90;;;8.25;55.17;100932.03;4979649;28;98664;-59
2021/01/08 08:14:09;;;;;;;10.53;8.07;;;7.80;99.90;;;8.21;55.66;100935.59;4973805;28;97568;-57
2021/01/08 08:16:38;;;;;;;9.80;7.90;;;7.70;99.90;;;8.00;56.61;100932.53;4952966;28;98861;-59
2021/01/08 08:19:05;;;;;;;11.27;8.07;;;7.50;99.90;;;8.48;58.14;100935.00;4988913;28;96832;-59
2021/01/08 08:21:31;;;;;;;10.37;8.53;;;7.80;99.90;;;8.27;55.22;100935.47;4959884;28;98951;-59
2021/01/08 08:24:03;;;;;;;9.77;7.87;;;7.70;99.90;;;8.06;55.97;100950.78;4953746;28;101440;-59
2021/01/08 08:26:31;;;;;;;10.03;8.27;;;7.50;99.90;;;8.14;55.32;100949.78;4976247;28;97182;-59
2021/01/08 08:29:01;;;;;;;11.83;9.10;;;7.60;99.90;;;7.98;55.91;100951.84;4948967;28;97276;-57
2021/01/08 08:31:32;;;;;;;10.93;8.20;;;7.50;99.90;;;7.84;56.05;100957.38;4969644;28;97288;-56
2021/01/08 08:33:59;;;;;;;11.57;8.07;;;7.40;99.90;;;7.91;57.09;100958.09;4954330;28;99356;-57
2021/01/08 08:36:28;;;;;;;10.57;8.57;;;7.40;99.90;;;8.01;56.96;100964.91;4964928;28;98671;-59
2021/01/08 08:39:02;;;;;;;10.53;7.87;;;7.40;99.90;;;7.66;56.48;100963.81;4985810;28;97392;-59
2021/01/08 08:41:29;;;;;;;10.63;8.37;;;7.30;99.90;;;7.41;57.50;100968.69;4964749;28;99520;-59
2021/01/08 08:44:06;;;;;;;13.53;8.97;;;7.00;99.90;;;7.52;57.90;100967.59;4965682;28;97750;-58
2021/01/08 08:46:58;;;;;;;12.60;9.47;;;7.00;99.90;;;7.74;58.86;100971.56;4974824;28;97366;-59
2021/01/08 08:49:34;;;;;;;11.17;8.90;;;7.20;99.90;;;7.51;57.30;100971.97;4984881;28;97547;-59
2021/01/08 08:52:01;;;;;;;11.73;8.97;;;7.10;99.90;;;7.53;57.90;100971.97;4964641;28;97124;-59
2021/01/08 08:54:27;;;;;;;10.93;8.73;;;7.10;99.90;;;7.57;57.13;100978.91;4978319;28;98776;-59
2021/01/08 08:56:56;;;;;;;11.60;8.87;;;7.10;99.90;;;7.47;57.92;100979.06;4960410;28;100490;-58
2021/01/08 08:59:41;;;;;;;13.43;9.63;;;7.10;99.90;;;7.39;58.49;100975.72;4956254;28;98440;-58
2021/01/08 09:02:10;;;;;;;12.80;9.47;;;7.00;99.90;;;7.31;57.99;100980.22;4960101;28;102221;-59
2021/01/08 09:04:52;;;;;;;12.13;9.60;;;7.00;99.90;;;7.84;58.59;100978.38;4973626;28;97621;-58
2021/01/08 09:07:31;;;;;;;15.43;10.80;;;7.20;99.90;;;7.64;58.43;100985.75;4976529;28;101896;-59
2021/01/08 09:10:27;;;;;;;12.30;9.80;;;7.20;99.90;;;7.76;57.36;100982.91;4968869;28;96837;-59
2021/01/08 09:12:59;;;;;;;14.03;10.03;;;7.30;99.90;;;8.05;58.46;100983.19;4962822;28;97728;-57
2021/01/08 09:15:30;;;;;;;13.60;10.10;;;7.40;99.90;;;8.25;56.71;100989.84;4985154;28;104613;-55
2021/01/08 09:18:12;;;;;;;15.30;11.33;;;7.70;99.90;;;7.75;56.70;100989.06;4971686;28;99621;-57
2021/01/08 09:20:56;;;;;;;15.73;11.70;;;7.40;99.90;;;7.53;57.46;100992.97;4973997;28;97387;-59
2021/01/08 09:23:22;;;;;;;18.83;12.17;;;7.20;99.90;;;7.35;58.20;100995.00;4964593;28;98282;-58
2021/01/08 09:25:49;;;;;;;16.47;12.37;;;7.00;99.90;;;7.35;58.14;100999.41;4974638;28;116574;-59
2021/01/08 09:28:17;;;;;;;17.37;13.23;;;7.00;99.90;;;7.32;58.55;101002.94;4967854;28;100094;-58
2021/01/08 09:30:50;;;;;;;16.77;12.20;;;7.00;99.90;;;7.60;58.24;101000.72;4977930;28;99219;-58
2021/01/08 09:33:16;;;;;;;17.77;12.93;;;7.20;99.90;;;7.56;57.83;101008.69;4966883;28;98364;-58
2021/01/08 09:35:46;;;;;;;19.00;13.03;;;7.20;99.90;;;7.46;58.11;101008.81;4995651;28;97732;-57
2021/01/08 09:38:15;;;;;;;18.13;13.47;;;7.10;99.90;;;7.55;58.95;101006.94;4983609;28;97191;-57
2021/01/08 09:40:42;;;;;;;16.07;12.90;;;7.10;99.90;;;7.67;58.53;101019.88;4957764;28;98123;-58
2021/01/08 09:43:18;;;;;;;19.93;14.13;;;7.20;99.90;;;8.23;56.38;101023.13;4982575;28;97582;-56
2021/01/08 09:45:45;;;;;;;18.13;14.57;;;7.80;99.90;;;7.76;56.73;101023.16;4980729;28;98728;-55
2021/01/08 09:48:23;;;;;;;18.23;14.13;;;7.60;99.90;;;7.59;57.33;101021.75;4988949;28;100999;-55
2021/01/08 09:51:04;;;;;;;20.43;15.63;;;7.30;99.90;;;7.62;58.17;101021.69;4979605;28;96971;-58
2021/01/08 09:53:32;;;;;;;20.13;14.90;;;7.20;99.90;;;7.44;58.92;101025.50;4990377;28;101315;-51
2021/01/08 09:56:17;;;;;;;20.93;16.17;;;7.10;99.90;;;7.70;57.72;101032.94;4951119;28;98240;-57
2021/01/08 09:58:43;;;;;;;21.40;15.40;;;7.40;99.90;;;7.54;58.21;101039.34;4967806;28;101295;-58
2021/01/08 10:01:13;;;;;;;18.93;15.00;;;7.20;99.90;;;7.63;60.09;101036.53;4947730;28;97251;-55
2021/01/08 10:03:49;;;;;;;19.13;14.93;;;7.20;99.90;;;8.11;58.54;101044.44;4983812;28;96979;-56
2021/01/08 10:06:15;;;;;;;18.50;14.27;;;7.60;99.90;;;8.20;57.33;101044.22;4964392;28;98317;-58
2021/01/08 10:08:41;;;;;;;18.50;13.87;;;7.70;99.90;;;8.24;57.87;101045.91;4964856;28;104416;-57
2021/01/08 10:11:08;;;;;;;17.13;14.20;;;7.70;99.90;;;8.30;56.96;101040.53;4981298;28;96731;-57
2021/01/08 10:13:34;;;;;;;17.57;13.77;;;7.80;99.90;;;8.13;56.68;101040.00;4977617;28;97017;-57
2021/01/08 10:16:09;;;;;;;17.77;13.83;;;7.70;99.90;;;8.53;55.90;101040.06;4966013;28;98943;-59
2021/01/08 10:18:37;;;;;;;17.93;13.67;;;8.00;99.90;;;8.22;56.24;101031.91;4977746;28;99072;-59
2021/01/08 10:21:09;;;;;;;17.67;14.00;;;7.80;99.90;;;7.97;56.61;101040.31;4986532;28;97976;-59
2021/01/08 10:23:43;;;;;;;18.40;14.50;;;7.70;99.90;;;8.00;58.46;101037.63;4972186;28;97489;-57
2021/01/08 10:26:17;;;;;;;22.80;17.63;;;7.50;99.90;;;7.91;58.01;101043.03;4981016;28;97575;-56